Faulkner, Maryland
Current Conditions -  °F | °C
As of 6:56 AM on Monday 26 Jan 2015 (Local Time) from KNYG Reporting Station
Light Rain Light Rain  
Wind Chill: 35°   Ceiling: 700
Heat Index: 39°   Visibility: 5mi
Dew Point: 36°   Wind: 6mph
Humidity: 89%   Direction: 70°ENE
Pressure: 29.79"   Gusts: NA
Location:  38.44°N, 76.98°W
Report Text: KNYG 261156Z 07005KT 5SM -RA OVC007 04/02 A2979 RMK AO2 SLP090 P0006 60015 70015 T00390022 10050 20039 55000 $
Loading
Personal Weather Stations






























Interactive Weather Map New forecast layout! Learn more

10-Day Weather Forecast

Advertisements
Track Severe Weather on mobile